Terminal Aerodrome Forecast
Issued by NWS Caribou, ME

Current Version | Previous Version | Text Only | Print | Product List | Glossary On
Versions: 1 2 3 4 5 6 7 8 9 10 11 12 13 14 15 16 17 18 19 20
000 FTUS41 KCAR 290800 AAC TAFCAR TAF AMD KCAR 290829Z 2908/3006 16008KT 6SM BR OVC006 TEMPO 2909/2912 3SM BR BKN004 FM291200 21008KT P6SM OVC008 FM291400 22008KT P6SM OVC015 FM291700 24008KT P6SM BKN035 FM292200 23006KT P6SM SCT140=

USA.gov is the U.S. government's official web portal to all federal, state and local government web resources and services.